AirNav   Pilot Hours Calculator
 
 1387 users online  

46FL Hospital Heliport
Titusville, Florida, USA

GOING TO TITUSVILLE?


FAA INFORMATION EFFECTIVE 05 DECEMBER 2019

Location

FAA Identifier: 46FL
Lat/Long: 28-37-45.9850N 080-49-19.1940W
28-37.766417N 080-49.319900W
28.6294403,-80.8219983
(estimated)
Elevation: 10 ft. / 3 m (estimated)
Variation: 03W (1985)
Time zone: UTC -5 (UTC -4 during Daylight Saving Time)
Zip code: 32796

Heliport Operations

Heliport use: Private use, MEDICAL.
Activation date: 08/1981
Control tower: no
ARTCC: JACKSONVILLE CENTER
FSS: SAINT PETERSBURG FLIGHT SERVICE STATION
Attendance: UNATNDD
Wind indicator: yes
Segmented circle: no
Lights: FOR HELIPAD LGTS, PHONE 305-268-6111.

Heliport Communications

WX AWOS-3 at X21 (0.8 nm SW): 119.725 (321-385-0384)
WX AWOS-3PT at TIX (7 nm S): 120.625 (321-567-6090)
WX AWOS-3 at COI (19 nm SE): 119.025 (321-986-8864)

Nearby radio navigation aids

VOR radial/distance  VOR name  Freq  Var
ORLr079/27.5ORLANDO VORTAC112.2000E
MLBr350/33.0MELBOURNE VOR/DME110.0007W

Heliport Services

Runway Information

Helipad H1

Dimensions: 32 x 32 ft. / 10 x 10 m
Surface: turf, in fair condition
Operational restrictions: APP FROM 130 & 220 DEGS ONLY; DEP AT 310 & 040 DEGS ONLY.
Latitude: 28-37.766417N
Longitude: 080-49.319900W
Elevation: 10.0 ft.
Traffic pattern: leftleft
Markings: none, in fair condition

Heliport Ownership and Management from official FAA records

Ownership: Privately-owned
Owner: PARRISH MEDICAL CENTER
951 N. WASHINGTON AVE
TITUSVILLE, FL 32796
Phone 321-268-6111
EXT 8711.
Manager: DEENA ELLIS
951 N. WASHINGTON AVE
TITUSVILLE, FL 32796
Phone 321-268-6751
EXT 8712

Additional Remarks

A40 FLOOD LIGHTS.
FOR CD CTC ORLANDO APCH AT 407-852-7553.
A52-H1 TREES EAST OF PAD.

Instrument Procedures

There are no published instrument procedures at 46FL.

Some nearby airports with instrument procedures:

X21 - Arthur Dunn Air Park (1 nm SW)
KTTS - NASA Shuttle Landing Facility (7 nm E)
KTIX - Space Coast Regional Airport (7 nm S)
KXMR - Cape Canaveral Air Force Station Skid Strip (17 nm SE)
KCOI - Merritt Island Airport (19 nm SE)
 
Loc | Ops | Rwys | IFR | FBO | Links
Com | Nav | Svcs | Stats | Notes


 
Area around 46FL (Hospital Heliport)
 
Road maps at: MapQuest Bing Google
 
Aerial photo
WARNING: Photo may not be current or correct
Aerial photo of 46FL (Hospital Heliport)
Photo taken 18-Jan-2005
looking south.

Do you have a better or more recent aerial photo of Hospital Heliport that you would like to share? If so, please send us your photo.

 
Sectional chart

 
Airport distance calculator
Flying to Hospital Heliport? Find the distance to fly.

From to 46FL

Sunrise and sunset
Times for 05-Dec-2019
 Local
(UTC-5)
 Zulu
(UTC)
Morning civil twilight06:3711:37
Sunrise07:0312:03
Sunset17:2522:25
Evening civil twilight17:5122:51

Current date and time
Zulu (UTC)  05-Dec-2019 15:04:56
Local (UTC-5)  05-Dec-2019 10:04:56
 
METAR
KTTS 
6nm E 
051456Z AUTO 31005KT 10SM CLR 16/09 A3012 RMK AO2 SLP204 T01600087 52015 FZRANO $
KTIX 
7nm S 
051455Z 32007KT 7SM FEW120 17/08 A3014
KXMR 
18nm SE 
051456Z AUTO 31008KT 10SM CLR 17/07 A3011 RMK AO2 SLP199 T01650074 52016 $
TAF
KTIX 
7nm S 
051125Z 0512/0612 VRB04KT P6SM FEW250 FM051500 02007KT P6SM SCT250 FM060000 VRB02KT P6SM SCT250
NOTAMs
Click for the latest NOTAMs
NOTAMs are issued by the DoD/FAA and will open in a separate window not controlled by AirNav.

 

 
 

Would you like to see your business listed on this page?

 If your business provides an interesting product or service to pilots, flight crews, aircraft, or users of the Hospital Heliport, you should consider listing it here.  To start the listing process, click on the button below
 
Add a business
 

Other Pages about Hospital Heliport

Update a link
 
Copyright © AirNav, LLC. All rights reserved. Privacy Policy  Contact